createdAt,value
2018-08-04T06:33:53.276Z,18.73
2018-08-04T06:37:12.662Z,16.90
2018-08-04T06:39:43.576Z,16.50
2018-08-04T06:42:14.466Z,19.07
2018-08-04T06:44:46.995Z,16.37
2018-08-04T06:47:18.111Z,17.70
2018-08-04T06:49:47.923Z,15.97
2018-08-04T06:52:18.780Z,16.43
2018-08-04T06:54:49.604Z,15.70
2018-08-04T06:57:20.413Z,14.73
2018-08-04T06:59:51.153Z,15.87
2018-08-04T07:02:22.135Z,13.57
2018-08-04T07:04:54.659Z,15.40
2018-08-04T07:07:25.498Z,14.93
2018-08-04T07:09:56.318Z,14.93
2018-08-04T07:12:26.135Z,14.77
2018-08-04T07:14:57.271Z,14.33
2018-08-04T07:17:28.134Z,14.13
2018-08-04T07:19:59.965Z,14.97
2018-08-04T07:22:30.473Z,15.73
2018-08-04T07:25:11.736Z,19.63
2018-08-04T07:27:42.359Z,15.10
2018-08-04T07:30:16.485Z,13.60
2018-08-04T07:32:48.245Z,13.93
2018-08-04T07:35:21.810Z,13.57
2018-08-04T07:37:53.959Z,14.10
2018-08-04T07:40:24.727Z,15.47
2018-08-04T07:42:58.575Z,14.00
2018-08-04T07:45:30.502Z,13.17
2018-08-04T07:48:04.237Z,13.33
2018-08-04T07:50:38.368Z,13.73
2018-08-04T07:53:12.138Z,12.00
2018-08-04T07:55:45.438Z,12.63
2018-08-04T07:58:16.712Z,13.10
2018-08-04T08:00:50.032Z,12.97
2018-08-04T08:03:22.220Z,11.70
2018-08-04T08:05:56.080Z,13.10
2018-08-04T08:08:30.965Z,12.80
2018-08-04T08:11:05.182Z,12.20
2018-08-04T08:13:56.220Z,12.10
2018-08-04T08:16:29.908Z,10.23
2018-08-04T08:19:47.709Z,12.70
2018-08-04T08:25:27.003Z,11.90
2018-08-04T08:28:10.348Z,12.87
2018-08-04T08:34:15.533Z,12.60
2018-08-04T08:40:20.172Z,10.70
2018-08-04T08:42:51.383Z,10.67
2018-08-04T08:48:06.786Z,9.00
2018-08-04T08:50:44.111Z,9.93
2018-08-04T08:55:56.029Z,9.70
2018-08-04T08:58:41.536Z,8.83
2018-08-04T09:03:58.385Z,9.40
2018-08-04T09:06:37.215Z,7.60
2018-08-04T09:09:13.224Z,9.33
2018-08-04T09:11:50.160Z,8.30
2018-08-04T09:18:42.147Z,10.20
2018-08-04T09:25:01.639Z,21.80
2018-08-04T09:30:58.552Z,6.73
2018-08-04T09:33:45.101Z,11.67
2018-08-04T09:36:26.100Z,7.27
2018-08-04T09:39:22.190Z,14.50
2018-08-04T09:42:01.738Z,6.93
2018-08-04T09:44:33.963Z,8.90
2018-08-04T09:50:05.429Z,8.90
2018-08-04T09:52:49.359Z,7.23
2018-08-04T09:55:19.788Z,7.50
2018-08-04T09:57:53.192Z,7.33
2018-08-04T10:00:29.781Z,15.03
2018-08-04T10:03:03.120Z,6.70
2018-08-04T10:05:39.693Z,5.90
2018-08-04T10:08:13.562Z,6.53
2018-08-04T10:10:46.124Z,6.83
2018-08-04T10:13:19.328Z,8.47
2018-08-04T10:16:04.236Z,6.53
2018-08-04T10:18:35.148Z,7.07
2018-08-04T10:21:05.817Z,7.20
2018-08-04T10:23:55.913Z,7.07
2018-08-04T10:26:31.076Z,7.40
2018-08-04T10:29:31.948Z,7.10
2018-08-04T10:32:03.333Z,8.03
2018-08-04T10:34:39.368Z,6.87
2018-08-04T10:37:10.674Z,7.47
2018-08-04T10:40:08.717Z,5.77
2018-08-04T10:42:41.216Z,6.63
2018-08-04T10:45:21.457Z,6.23
2018-08-04T10:51:31.550Z,6.13
2018-08-04T10:54:13.037Z,6.43
2018-08-04T10:58:00.117Z,6.00
2018-08-04T11:00:57.355Z,6.63
2018-08-04T11:03:38.707Z,6.70
2018-08-04T11:06:18.266Z,7.00
2018-08-04T11:09:06.419Z,7.17
2018-08-04T11:11:56.461Z,7.57
2018-08-04T11:15:24.860Z,6.70
2018-08-04T11:18:08.263Z,7.13
2018-08-04T11:31:43.821Z,8.20
2018-08-04T11:42:24.564Z,6.30
2018-08-04T11:44:55.265Z,6.97
2018-08-04T11:50:08.048Z,6.57
2018-08-04T11:52:45.397Z,6.70
2018-08-04T11:55:21.157Z,6.53
2018-08-04T11:57:51.515Z,6.83
2018-08-04T12:00:26.931Z,7.03
2018-08-04T12:02:57.159Z,6.07
2018-08-04T12:05:30.025Z,6.40
2018-08-04T12:08:02.863Z,6.57
2018-08-04T12:10:47.524Z,6.93
2018-08-04T12:13:46.294Z,7.43
2018-08-04T12:16:25.832Z,7.40
2018-08-04T12:19:21.273Z,6.40
2018-08-04T12:21:56.921Z,7.20
2018-08-04T12:24:35.082Z,8.00
2018-08-04T12:27:11.910Z,9.70
2018-08-04T12:29:49.605Z,7.53
2018-08-04T12:32:24.764Z,7.10
2018-08-04T12:34:57.494Z,8.00
2018-08-04T12:37:28.439Z,7.63
2018-08-04T12:40:00.340Z,7.00
2018-08-04T12:42:31.892Z,7.20
2018-08-04T12:45:02.595Z,8.30
2018-08-04T12:47:37.139Z,7.50
2018-08-04T12:50:14.213Z,7.63
2018-08-04T12:52:48.092Z,7.80
2018-08-04T12:55:26.606Z,7.37
2018-08-04T12:58:01.143Z,7.50
2018-08-04T13:00:33.536Z,8.10
2018-08-04T13:03:07.724Z,6.87
2018-08-04T13:05:41.849Z,7.93
2018-08-04T13:08:14.840Z,8.17
2018-08-04T13:10:45.793Z,7.43
2018-08-04T13:13:16.047Z,7.33
2018-08-04T13:15:49.099Z,7.73
2018-08-04T13:18:20.914Z,7.90
2018-08-04T13:20:53.464Z,7.20
2018-08-04T13:23:28.083Z,7.60
2018-08-04T13:26:00.795Z,6.83
2018-08-04T13:28:32.093Z,6.60
2018-08-04T13:33:46.027Z,7.83
2018-08-04T13:36:16.775Z,7.53
2018-08-04T13:38:48.797Z,7.20
2018-08-04T13:41:24.775Z,6.87
2018-08-04T13:43:58.464Z,7.20
2018-08-04T13:46:30.443Z,6.90
2018-08-04T13:49:00.946Z,7.63
2018-08-04T13:51:34.154Z,8.27
2018-08-04T13:54:03.967Z,7.90
2018-08-04T13:56:34.963Z,7.73
2018-08-04T13:59:05.592Z,7.43
2018-08-04T14:01:36.754Z,7.40
2018-08-04T14:04:09.201Z,7.10
2018-08-04T14:06:39.751Z,7.87
2018-08-04T14:09:12.910Z,9.57
2018-08-04T14:11:43.395Z,8.17
2018-08-04T14:14:20.016Z,7.47
2018-08-04T14:16:51.350Z,7.70
2018-08-04T14:19:21.912Z,7.20
2018-08-04T14:21:56.201Z,7.73
2018-08-04T14:24:25.828Z,7.90
2018-08-04T14:26:56.636Z,7.50
2018-08-04T14:29:27.378Z,7.53
2018-08-04T14:31:58.300Z,7.80
2018-08-04T14:34:28.121Z,7.40
2018-08-04T14:36:58.777Z,8.67
2018-08-04T14:39:28.683Z,8.33
2018-08-04T14:41:58.485Z,8.50
2018-08-04T14:44:30.293Z,8.80
2018-08-04T14:47:01.907Z,8.50
2018-08-04T14:49:32.768Z,8.80
2018-08-04T14:52:02.767Z,8.23
2018-08-04T14:54:32.576Z,8.10
2018-08-04T14:57:02.384Z,8.47
2018-08-04T14:59:32.155Z,8.03
2018-08-04T15:02:02.012Z,8.10
2018-08-04T15:04:31.842Z,7.80
2018-08-04T15:07:02.524Z,8.00
2018-08-04T15:09:32.457Z,7.87
2018-08-04T15:12:02.240Z,7.73
2018-08-04T15:14:32.495Z,8.47
2018-08-04T15:17:03.044Z,8.50
2018-08-04T15:19:55.706Z,9.60
2018-08-04T15:22:24.788Z,7.90
2018-08-04T15:27:46.663Z,8.80
2018-08-04T15:30:17.930Z,8.90
2018-08-04T15:32:48.261Z,7.73
2018-08-04T15:35:18.027Z,9.10
2018-08-04T15:37:49.090Z,8.33
2018-08-04T15:40:19.062Z,9.10
2018-08-04T15:42:49.401Z,9.17
2018-08-04T15:45:22.278Z,8.60
2018-08-04T15:47:53.076Z,9.13
2018-08-04T15:50:28.920Z,9.30
2018-08-04T15:52:58.760Z,8.90
2018-08-04T15:58:29.728Z,8.87
2018-08-04T16:00:59.532Z,8.30
2018-08-04T16:03:29.342Z,9.23
2018-08-04T16:05:59.115Z,8.80
2018-08-04T16:08:29.954Z,8.50
2018-08-04T16:10:59.757Z,9.03
2018-08-04T16:13:29.545Z,8.67
2018-08-04T16:15:59.358Z,9.00
2018-08-04T16:18:30.692Z,8.67
2018-08-04T16:21:01.943Z,7.87
2018-08-04T16:23:35.901Z,9.13
2018-08-04T16:26:06.652Z,9.47
2018-08-04T16:28:36.443Z,10.07
2018-08-04T16:31:06.277Z,9.13
2018-08-04T16:33:35.918Z,8.70
2018-08-04T16:36:05.809Z,9.03
2018-08-04T16:38:36.620Z,10.17
2018-08-04T16:41:07.573Z,9.30
2018-08-04T16:43:38.167Z,9.40
2018-08-04T16:46:09.545Z,9.93
2018-08-04T16:48:40.584Z,9.23
2018-08-04T16:51:11.285Z,9.30
2018-08-04T16:53:41.492Z,9.50
2018-08-04T16:56:11.319Z,9.00
2018-08-04T16:58:43.083Z,9.40
2018-08-04T17:01:12.906Z,9.57
2018-08-04T17:03:43.554Z,9.93
2018-08-04T17:06:14.244Z,9.07
2018-08-04T17:08:45.512Z,8.13
2018-08-04T17:11:16.080Z,9.20
2018-08-04T17:13:46.889Z,9.70
2018-08-04T17:16:16.740Z,9.80
2018-08-04T17:18:46.826Z,9.60
2018-08-04T17:21:17.229Z,9.70
2018-08-04T17:23:48.359Z,10.10
2018-08-04T17:26:19.471Z,10.33
2018-08-04T17:29:11.189Z,10.83
2018-08-04T17:31:46.593Z,9.63
2018-08-04T17:34:19.516Z,9.83
2018-08-04T17:36:52.370Z,9.70
2018-08-04T17:39:23.768Z,9.50
2018-08-04T17:41:54.396Z,10.37
2018-08-04T17:44:25.079Z,10.60
2018-08-04T17:46:55.622Z,11.70
2018-08-04T17:49:25.827Z,11.73
2018-08-04T17:51:57.043Z,11.10
2018-08-04T17:54:28.042Z,11.57
2018-08-04T17:57:02.971Z,10.47
2018-08-04T18:13:38.043Z,11.17
2018-08-04T18:16:10.693Z,11.13
2018-08-04T18:18:45.590Z,11.63
2018-08-04T18:21:24.131Z,11.43
2018-08-04T18:24:03.360Z,11.30
2018-08-04T18:26:35.485Z,12.50
2018-08-04T18:29:11.767Z,10.73
2018-08-04T18:31:45.326Z,12.70
2018-08-04T18:34:17.793Z,11.80
2018-08-04T18:36:50.763Z,12.00
2018-08-04T18:39:22.521Z,11.40
2018-08-04T18:44:36.277Z,12.10
2018-08-04T18:47:11.018Z,13.37
2018-08-04T18:52:18.773Z,12.80
2018-08-04T18:54:52.592Z,13.13
2018-08-04T18:57:29.054Z,12.37
2018-08-04T19:00:00.350Z,12.33
2018-08-04T19:02:30.399Z,12.77
2018-08-04T19:05:00.836Z,12.50
2018-08-04T19:07:31.661Z,12.53
2018-08-04T19:10:02.752Z,12.00
2018-08-04T19:12:33.275Z,12.90
2018-08-04T19:15:04.061Z,12.83
2018-08-04T19:17:35.091Z,13.30
2018-08-04T19:20:06.271Z,11.50
2018-08-04T19:22:37.034Z,12.27
2018-08-04T19:25:14.440Z,13.93
2018-08-04T19:27:47.645Z,13.00
2018-08-04T19:30:19.329Z,12.40
2018-08-04T19:32:49.903Z,13.17
2018-08-04T19:35:19.987Z,12.93
2018-08-04T19:37:50.577Z,12.43
2018-08-04T19:40:21.736Z,12.30
2018-08-04T19:42:52.763Z,12.53
2018-08-04T19:45:23.203Z,13.97
2018-08-04T19:47:53.096Z,13.27
2018-08-04T19:50:23.574Z,11.77
2018-08-04T19:52:54.915Z,14.17
2018-08-04T19:55:25.311Z,12.70
2018-08-04T19:57:56.017Z,12.90
2018-08-04T20:00:27.053Z,12.73
2018-08-04T20:02:57.666Z,12.20
2018-08-04T20:05:27.754Z,12.67
2018-08-04T20:07:59.108Z,13.10
2018-08-04T20:10:30.059Z,12.10
2018-08-04T20:13:00.927Z,12.43
2018-08-04T20:15:31.742Z,12.33
2018-08-04T20:18:02.868Z,13.10
2018-08-04T20:20:33.605Z,13.57
2018-08-04T20:23:04.213Z,11.67
2018-08-04T20:25:35.453Z,13.20
2018-08-04T20:28:06.116Z,12.30
2018-08-04T20:30:36.764Z,12.10
2018-08-04T20:33:07.643Z,12.67
2018-08-04T20:35:38.247Z,12.60
2018-08-04T20:38:08.360Z,13.63
2018-08-04T20:40:38.865Z,14.17
2018-08-04T20:43:08.996Z,13.33
2018-08-04T20:45:40.808Z,13.97
2018-08-04T20:48:11.316Z,13.57
2018-08-04T20:50:41.400Z,12.80
2018-08-04T20:53:11.927Z,12.90
2018-08-04T20:55:42.765Z,12.13
2018-08-04T20:58:12.844Z,13.50
2018-08-04T21:00:48.648Z,13.60
2018-08-04T21:03:19.247Z,14.23
2018-08-04T21:05:49.437Z,13.73
2018-08-04T21:08:20.097Z,13.40
2018-08-04T21:10:50.855Z,14.50
2018-08-04T21:13:21.875Z,14.27
2018-08-04T21:15:53.554Z,13.43
2018-08-04T21:18:24.542Z,14.53
2018-08-04T21:20:55.750Z,14.93
2018-08-04T21:23:26.048Z,14.10
2018-08-04T21:25:56.911Z,13.50
2018-08-04T21:28:27.379Z,13.13
2018-08-04T21:30:59.533Z,14.70
2018-08-04T21:33:29.317Z,14.70
2018-08-04T21:35:59.108Z,14.40
2018-08-04T21:38:28.907Z,12.83
2018-08-04T21:40:59.655Z,13.93
2018-08-04T21:43:29.536Z,14.80
2018-08-04T21:46:01.303Z,14.70
2018-08-04T21:48:31.197Z,13.43
2018-08-04T21:51:02.305Z,14.50
2018-08-04T21:53:31.862Z,13.43
2018-08-04T21:56:02.681Z,13.73
2018-08-04T21:58:32.405Z,14.07
2018-08-04T22:01:08.515Z,13.97
2018-08-04T22:03:38.581Z,15.20
2018-08-04T22:06:08.912Z,14.67
2018-08-04T22:08:50.313Z,14.40
2018-08-04T22:11:21.276Z,15.63
2018-08-04T22:13:52.195Z,14.33
2018-08-04T22:16:22.605Z,14.33
2018-08-04T22:18:52.990Z,14.87
2018-08-04T22:21:23.430Z,15.97
2018-08-04T22:23:53.856Z,15.10
2018-08-04T22:26:25.115Z,15.63
2018-08-04T22:28:56.159Z,14.17
2018-08-04T22:31:26.749Z,15.10
2018-08-04T22:33:58.474Z,15.30
2018-08-04T22:36:27.937Z,15.73
2018-08-04T22:38:59.184Z,15.73
2018-08-04T22:41:29.402Z,15.97
2018-08-04T22:44:01.143Z,15.03
2018-08-04T22:46:31.270Z,15.13
2018-08-04T22:49:01.948Z,15.47
2018-08-04T22:51:32.073Z,15.80
2018-08-04T22:54:02.808Z,15.83
2018-08-04T22:56:34.960Z,15.90
2018-08-04T22:59:05.904Z,16.03
